Time;durP1;ratioP1;P1;durP2;ratioP2;P2;SDS_P1;SDS_P2;PMS_P1;PMS_P2;Temp;Humidity;BMP_temperature;BMP_pressure;BME280_temperature;BME280_humidity;BME280_pressure;Samples;Min_cycle;Max_cycle;Signal;HPM_P1;HPM_P2
2022/08/22 00:00:08;;;;;;;5.60;2.87;;;;;;;14.30;85.53;98814.91;5086064;28;20396;-80
2022/08/22 00:02:45;;;;;;;5.65;2.70;;;;;;;14.25;87.43;98816.59;5083938;28;20368;-79
2022/08/22 00:05:25;;;;;;;10.60;3.08;;;;;;;14.26;88.08;98818.28;5086216;28;20532;-79
2022/08/22 00:07:59;;;;;;;4.35;2.60;;;;;;;14.38;87.66;98812.94;5087188;28;20048;-79
2022/08/22 00:10:34;;;;;;;6.18;2.90;;;;;;;14.36;88.00;98817.81;5088338;28;20048;-80
2022/08/22 00:13:06;;;;;;;7.93;2.70;;;;;;;14.40;84.88;98817.16;5086261;28;20074;-80
2022/08/22 00:15:37;;;;;;;5.53;2.80;;;;;;;14.40;85.07;98821.78;5081091;28;20483;-79
2022/08/22 00:18:11;;;;;;;6.22;2.80;;;;;;;14.29;84.05;98813.22;5082337;28;20040;-79
2022/08/22 00:20:44;;;;;;;5.40;2.60;;;;;;;14.24;85.01;98818.50;5072280;28;20049;-79
2022/08/22 00:23:18;;;;;;;6.15;2.90;;;;;;;14.17;85.71;98812.22;5080144;28;20044;-80
2022/08/22 00:25:54;;;;;;;5.20;2.45;;;;;;;14.18;86.13;98807.59;5071382;28;20044;-80
2022/08/22 00:28:25;;;;;;;4.65;2.58;;;;;;;14.09;88.04;98817.91;5071300;28;20052;-79
2022/08/22 00:30:58;;;;;;;4.10;2.47;;;;;;;13.98;89.43;98811.22;5082331;28;20131;-79
2022/08/22 00:33:33;;;;;;;3.97;2.90;;;;;;;14.07;88.52;98812.66;5088881;28;20468;-79
2022/08/22 00:36:15;;;;;;;4.57;3.00;;;;;;;14.08;87.99;98808.06;5082581;28;20040;-80
2022/08/22 00:38:47;;;;;;;5.53;2.78;;;;;;;13.96;89.64;98805.97;5087173;28;20480;-79
2022/08/22 00:41:30;;;;;;;5.18;2.63;;;;;;;13.88;90.97;98814.44;5090127;28;20048;-79
2022/08/22 00:44:09;;;;;;;4.55;2.72;;;;;;;13.85;90.91;98811.28;5088903;28;20507;-78
2022/08/22 00:47:06;;;;;;;5.50;3.38;;;;;;;13.96;91.91;98814.19;5073325;28;20502;-79
2022/08/22 00:50:04;;;;;;;6.07;3.08;;;;;;;13.98;91.99;98811.22;5088539;28;20059;-79
2022/08/22 00:52:45;;;;;;;12.85;2.78;;;;;;;14.00;91.47;98809.16;5086588;28;20048;-79
2022/08/22 00:55:36;;;;;;;5.63;3.00;;;;;;;13.88;92.36;98814.44;5085334;28;20052;-80
2022/08/22 00:58:47;;;;;;;6.13;2.65;;;;;;;13.81;92.71;98808.97;5075465;28;20547;-79
2022/08/22 01:01:20;;;;;;;10.13;2.97;;;;;;;13.77;92.29;98810.44;5073597;28;20052;-79
2022/08/22 01:04:12;;;;;;;11.38;3.00;;;;;;;13.72;93.02;98821.19;5088316;28;20048;-80
2022/08/22 01:06:53;;;;;;;4.13;2.70;;;;;;;13.75;93.29;98818.03;5090208;28;20062;-79
2022/08/22 01:09:31;;;;;;;6.70;3.00;;;;;;;13.73;93.26;98811.09;5090757;28;20052;-79
2022/08/22 01:12:12;;;;;;;7.00;3.13;;;;;;;13.69;93.55;98815.31;5075808;28;20059;-80
2022/08/22 01:14:46;;;;;;;8.10;3.38;;;;;;;13.41;95.64;98817.28;5091487;28;20062;-79
2022/08/22 01:17:43;;;;;;;8.00;3.00;;;;;;;13.33;96.55;98816.59;5093499;28;20080;-79
2022/08/22 01:20:55;;;;;;;6.25;3.03;;;;;;;13.32;96.34;98817.66;5062239;28;20060;-79
2022/08/22 01:24:01;;;;;;;5.85;2.90;;;;;;;13.42;96.45;98813.47;5042768;28;20122;-79
2022/08/22 01:26:57;;;;;;;5.45;2.78;;;;;;;13.54;95.05;98818.28;5090226;28;20047;-79
2022/08/22 01:29:56;;;;;;;6.55;2.70;;;;;;;13.44;95.01;98822.31;5085536;28;20110;-79
2022/08/22 01:32:49;;;;;;;4.50;3.07;;;;;;;13.19;96.55;98804.88;5084623;28;20048;-80
2022/08/22 01:35:57;;;;;;;5.80;2.78;;;;;;;13.27;96.31;98813.66;5085978;28;20464;-79
2022/08/22 01:38:41;;;;;;;3.30;2.63;;;;;;;13.20;95.98;98820.16;5089506;28;20056;-79
2022/08/22 01:41:32;;;;;;;5.78;2.83;;;;;;;13.09;97.11;98813.47;5092939;28;20048;-79
2022/08/22 01:44:13;;;;;;;7.22;3.13;;;;;;;13.21;96.69;98810.94;5092495;28;20052;-79
2022/08/22 01:46:54;;;;;;;6.47;3.30;;;;;;;12.98;96.16;98814.09;5087508;28;20528;-79
2022/08/22 01:49:27;;;;;;;9.10;2.72;;;;;;;12.97;96.53;98817.88;5090004;28;20438;-79
2022/08/22 01:52:01;;;;;;;4.32;2.95;;;;;;;12.79;97.45;98811.13;5078064;28;20059;-79
2022/08/22 01:54:38;;;;;;;3.95;2.70;;;;;;;12.77;98.25;98823.28;5089394;28;20071;-79
2022/08/22 01:57:07;;;;;;;4.53;3.10;;;;;;;12.75;98.98;98824.34;5092462;28;20063;-80
2022/08/22 01:59:38;;;;;;;5.32;2.72;;;;;;;12.60;98.88;98814.66;5086749;28;20048;-79
2022/08/22 02:02:20;;;;;;;6.55;2.95;;;;;;;12.54;100.00;98810.88;5084943;28;20127;-79
2022/08/22 02:04:55;;;;;;;4.25;2.95;;;;;;;12.60;100.00;98815.53;5087353;28;20055;-80
2022/08/22 02:07:27;;;;;;;6.78;3.15;;;;;;;12.80;100.00;98807.34;5092379;28;20040;-79
2022/08/22 02:10:08;;;;;;;5.07;2.90;;;;;;;12.79;99.27;98805.66;5085177;28;20043;-79
2022/08/22 02:12:42;;;;;;;5.55;3.25;;;;;;;12.79;98.80;98815.75;5087003;28;20040;-79
2022/08/22 02:15:18;;;;;;;4.55;3.17;;;;;;;12.76;98.65;98811.53;5092296;28;20052;-79
2022/08/22 02:18:00;;;;;;;7.53;3.00;;;;;;;12.68;99.74;98809.03;5089758;28;20040;-79
2022/08/22 02:20:32;;;;;;;6.30;3.22;;;;;;;12.57;100.00;98818.66;5083766;28;20101;-79
2022/08/22 02:23:09;;;;;;;4.93;2.47;;;;;;;12.53;100.00;98806.47;5084291;28;20101;-80
2022/08/22 02:25:50;;;;;;;6.10;2.88;;;;;;;12.66;99.88;98805.66;5090126;28;20492;-79
2022/08/22 02:28:30;;;;;;;6.78;2.88;;;;;;;12.78;99.38;98808.59;5087551;28;20055;-80
2022/08/22 02:31:06;;;;;;;5.80;3.50;;;;;;;12.60;100.00;98814.66;5071361;28;20094;-80
2022/08/22 02:33:41;;;;;;;14.18;3.40;;;;;;;12.52;100.00;98807.50;5089669;28;20101;-79
2022/08/22 02:36:18;;;;;;;6.55;2.63;;;;;;;12.38;100.00;98812.94;5089555;28;20173;-79
2022/08/22 02:38:58;;;;;;;6.60;3.30;;;;;;;12.24;100.00;98803.06;5091455;28;20097;-79
2022/08/22 02:41:32;;;;;;;4.40;2.78;;;;;;;12.35;100.00;98799.72;5085043;28;20045;-79
2022/08/22 02:44:03;;;;;;;6.15;3.72;;;;;;;12.37;100.00;98797.66;5083839;28;20048;-79
2022/08/22 02:46:41;;;;;;;6.40;3.00;;;;;;;12.45;100.00;98801.19;5086960;28;20086;-79
2022/08/22 02:49:15;;;;;;;8.38;2.97;;;;;;;12.41;100.00;98799.94;5090439;28;20496;-80
2022/08/22 02:51:51;;;;;;;5.65;3.00;;;;;;;12.21;100.00;98785.22;5079715;28;20117;-79
2022/08/22 02:54:25;;;;;;;5.30;2.92;;;;;;;12.08;100.00;98790.63;5088374;28;20040;-79
2022/08/22 02:56:58;;;;;;;5.18;3.15;;;;;;;12.18;100.00;98788.34;5078174;28;20101;-79
2022/08/22 02:59:33;;;;;;;5.22;3.15;;;;;;;12.25;100.00;98798.44;5088347;28;20044;-79
2022/08/22 03:02:27;;;;;;;5.25;3.00;;;;;;;12.38;100.00;98793.84;5090317;28;20071;-79
2022/08/22 03:04:55;;;;;;;3.38;2.55;;;;;;;12.41;100.00;98794.50;5070911;28;20467;-79
2022/08/22 03:07:32;;;;;;;4.57;2.90;;;;;;;12.38;100.00;98802.03;5085931;28;20109;-79
2022/08/22 03:10:10;;;;;;;5.63;3.00;;;;;;;12.35;100.00;98797.00;5082531;28;20339;-79
2022/08/22 03:12:47;;;;;;;4.22;3.45;;;;;;;12.29;100.00;98797.81;5082120;28;20452;-79
2022/08/22 03:15:23;;;;;;;3.50;2.72;;;;;;;12.43;100.00;98798.69;5088781;28;20051;-79
2022/08/22 03:17:56;;;;;;;5.65;3.10;;;;;;;12.42;100.00;98804.34;5078957;28;20048;-79
2022/08/22 03:20:40;;;;;;;6.90;3.45;;;;;;;12.41;100.00;98808.13;5081186;28;20052;-79
2022/08/22 03:23:13;;;;;;;5.30;3.38;;;;;;;12.45;100.00;98823.00;5075737;28;20188;-79
2022/08/22 03:25:47;;;;;;;8.85;3.35;;;;;;;12.49;100.00;98818.84;5090940;28;20056;-79
2022/08/22 03:28:19;;;;;;;11.02;4.00;;;;;;;12.33;100.00;98815.44;5090066;28;20116;-79
2022/08/22 03:30:57;;;;;;;7.80;3.60;;;;;;;12.37;100.00;98816.72;5088648;28;20454;-79
2022/08/22 03:33:27;;;;;;;4.63;3.33;;;;;;;12.24;100.00;98811.22;5084265;28;20048;-79
2022/08/22 03:36:06;;;;;;;6.07;3.40;;;;;;;12.18;100.00;98804.69;5088024;28;20139;-79
2022/08/22 03:39:03;;;;;;;5.90;3.10;;;;;;;12.06;100.00;98800.88;5090775;28;20082;-79
2022/08/22 03:42:08;;;;;;;5.55;3.05;;;;;;;12.10;100.00;98806.75;5087888;28;20044;-79
2022/08/22 03:45:02;;;;;;;9.45;3.50;;;;;;;12.04;100.00;98801.09;5041791;28;20488;-80
2022/08/22 03:47:47;;;;;;;5.68;3.35;;;;;;;11.88;100.00;98793.22;5091257;28;20552;-80
2022/08/22 03:50:33;;;;;;;5.72;3.65;;;;;;;11.85;100.00;98804.53;5083637;28;20105;-80
2022/08/22 03:53:26;;;;;;;7.50;3.40;;;;;;;12.04;100.00;98811.13;5083136;28;20105;-80
2022/08/22 03:56:27;;;;;;;6.43;3.17;;;;;;;12.09;100.00;98810.50;5034018;28;20056;-79
2022/08/22 03:59:20;;;;;;;5.43;3.53;;;;;;;12.01;100.00;98811.53;5066954;28;20098;-79
2022/08/22 04:02:16;;;;;;;4.38;3.10;;;;;;;11.87;100.00;98807.88;5090008;28;20089;-80
2022/08/22 04:05:08;;;;;;;6.35;3.42;;;;;;;11.73;100.00;98817.00;5089623;28;20048;-80
2022/08/22 04:08:13;;;;;;;6.07;3.45;;;;;;;11.90;100.00;98821.09;5073989;28;20133;-79
2022/08/22 04:11:12;;;;;;;5.72;3.38;;;;;;;11.85;100.00;98820.88;5086813;28;20514;-79
2022/08/22 04:14:07;;;;;;;5.82;3.97;;;;;;;11.78;100.00;98822.72;5087336;28;20433;-79
2022/08/22 04:17:13;;;;;;;4.47;3.13;;;;;;;11.56;100.00;98821.94;5052773;28;20056;-79
2022/08/22 04:20:23;;;;;;;5.65;3.30;;;;;;;11.43;100.00;98820.00;5073564;28;20044;-79
2022/08/22 04:23:10;;;;;;;8.80;3.45;;;;;;;11.52;100.00;98811.47;5080991;28;20110;-79
2022/08/22 04:25:40;;;;;;;5.78;3.45;;;;;;;11.58;100.00;98815.28;5075534;28;20045;-80
2022/08/22 04:28:17;;;;;;;7.50;4.13;;;;;;;11.62;100.00;98821.16;5072041;28;20056;-80
2022/08/22 04:30:51;;;;;;;4.50;3.58;;;;;;;11.70;100.00;98829.16;5081990;28;20059;-80
2022/08/22 04:33:22;;;;;;;5.63;3.15;;;;;;;11.49;100.00;98808.31;5089566;28;20050;-80
2022/08/22 04:36:01;;;;;;;3.40;2.92;;;;;;;11.52;100.00;98816.06;5081647;28;20059;-81
2022/08/22 04:38:33;;;;;;;7.10;3.30;;;;;;;11.52;100.00;98833.25;5090114;28;20564;-80
2022/08/22 04:41:07;;;;;;;3.78;3.17;;;;;;;11.42;100.00;98824.56;5083792;28;20087;-80
2022/08/22 04:43:41;;;;;;;3.55;2.75;;;;;;;11.47;100.00;98819.41;5078315;28;20048;-80
2022/08/22 04:46:15;;;;;;;4.30;3.22;;;;;;;11.50;100.00;98835.31;5093140;28;20127;-80
2022/08/22 04:48:50;;;;;;;5.03;2.85;;;;;;;11.46;100.00;98825.03;5093535;28;20056;-81
2022/08/22 04:51:27;;;;;;;3.60;2.90;;;;;;;11.50;100.00;98842.63;5091166;28;20054;-80
2022/08/22 04:54:27;;;;;;;4.72;3.00;;;;;;;11.41;100.00;98843.81;5085166;28;20274;-80
2022/08/22 04:57:14;;;;;;;6.40;3.47;;;;;;;11.35;100.00;98826.44;5071461;28;20048;-80
2022/08/22 04:59:41;;;;;;;6.82;3.33;;;;;;;11.42;100.00;98838.19;5087130;28;20049;-81
2022/08/22 05:02:10;;;;;;;5.90;3.35;;;;;;;11.37;100.00;98835.22;5085396;28;20056;-81
2022/08/22 05:04:40;;;;;;;5.38;3.60;;;;;;;11.50;100.00;98843.50;5091463;28;20048;-81
2022/08/22 05:07:16;;;;;;;6.35;3.00;;;;;;;11.61;100.00;98844.81;5074210;28;20047;-81
2022/08/22 05:09:51;;;;;;;4.38;3.05;;;;;;;11.71;100.00;98854.50;5091575;28;20084;-81
2022/08/22 05:12:22;;;;;;;4.45;3.15;;;;;;;11.84;100.00;98851.88;5089715;28;20048;-80
2022/08/22 05:14:52;;;;;;;6.35;3.20;;;;;;;11.81;100.00;98839.47;5078585;28;20039;-81
2022/08/22 05:17:23;;;;;;;4.80;3.67;;;;;;;11.91;100.00;98863.66;5090876;28;20044;-80
2022/08/22 05:19:53;;;;;;;6.53;4.00;;;;;;;11.87;100.00;98855.00;5080533;28;20044;-80
2022/08/22 05:22:23;;;;;;;;;;;;;;;11.83;100.00;98858.34;5075843;28;20503;-81
2022/08/22 05:24:56;;;;;;;8.47;3.47;;;;;;;11.94;100.00;98857.81;5079790;28;19930;-80
2022/08/22 05:27:26;;;;;;;4.50;3.20;;;;;;;11.95;100.00;98847.75;5090104;28;20318;-80
2022/08/22 05:30:00;;;;;;;6.15;2.83;;;;;;;12.08;100.00;98847.84;5074787;28;20056;-80
2022/08/22 05:32:49;;;;;;;5.93;3.67;;;;;;;12.20;100.00;98839.91;5081146;28;20052;-80
2022/08/22 05:35:18;;;;;;;8.77;3.63;;;;;;;12.35;100.00;98854.22;5086287;28;20067;-81
2022/08/22 05:37:48;;;;;;;7.47;3.92;;;;;;;12.55;100.00;98848.84;5091928;28;20044;-81
2022/08/22 05:40:20;;;;;;;5.15;3.78;;;;;;;12.70;100.00;98851.38;5091812;28;20058;-81
2022/08/22 05:42:47;;;;;;;6.55;3.30;;;;;;;12.73;100.00;98845.53;5081716;28;20052;-80
2022/08/22 05:45:18;;;;;;;4.93;3.35;;;;;;;12.85;100.00;98851.22;5091928;28;20163;-81
2022/08/22 05:47:49;;;;;;;5.93;3.50;;;;;;;13.07;100.00;98860.06;5085129;28;20040;-81
2022/08/22 05:50:20;;;;;;;4.72;3.40;;;;;;;13.14;100.00;98853.75;5087134;28;20134;-81
2022/08/22 05:52:56;;;;;;;;;;;;;;;13.32;100.00;98850.41;5083074;28;20036;-81
2022/08/22 05:55:29;;;;;;;7.07;3.17;;;;;;;13.39;100.00;98854.84;5081607;28;19990;-81
2022/08/22 05:58:12;;;;;;;7.07;3.90;;;;;;;13.50;98.30;98855.25;5082527;28;20040;-80
2022/08/22 06:00:43;;;;;;;7.70;3.97;;;;;;;13.65;96.64;98839.47;5092337;28;20048;-81
2022/08/22 06:03:16;;;;;;;6.13;3.40;;;;;;;13.94;94.99;98853.69;5072263;28;20047;-80
2022/08/22 06:05:46;;;;;;;6.57;3.80;;;;;;;14.24;91.87;98847.72;5091597;28;20502;-81
2022/08/22 06:08:22;;;;;;;5.70;3.80;;;;;;;14.85;87.68;98849.97;5084932;28;20049;-81
2022/08/22 06:10:54;;;;;;;5.32;3.47;;;;;;;15.33;83.86;98853.22;5075105;28;20070;-81
2022/08/22 06:13:30;;;;;;;7.97;3.30;;;;;;;15.88;80.25;98847.00;5089959;28;20052;-81
2022/08/22 06:16:07;;;;;;;5.18;3.50;;;;;;;16.10;77.82;98822.72;5071919;28;20044;-81
2022/08/22 06:18:37;;;;;;;8.98;4.20;;;;;;;16.66;75.95;98837.19;5082408;28;20055;-80
2022/08/22 06:21:10;;;;;;;6.47;3.40;;;;;;;17.20;73.81;98839.19;5075679;28;20044;-81
2022/08/22 06:23:42;;;;;;;6.55;3.33;;;;;;;17.46;72.34;98846.13;5072996;28;20076;-81
2022/08/22 06:26:11;;;;;;;17.58;3.63;;;;;;;17.68;71.46;98838.97;5083665;28;20056;-81
2022/08/22 06:28:41;;;;;;;12.23;4.95;;;;;;;17.94;70.35;98830.50;5089564;28;20044;-81
2022/08/22 06:31:14;;;;;;;4.70;3.00;;;;;;;18.25;68.24;98844.94;5082943;28;20416;-81
2022/08/22 06:33:43;;;;;;;7.88;3.03;;;;;;;18.50;67.49;98844.59;5081486;28;20431;-81
2022/08/22 06:36:33;;;;;;;13.20;3.63;;;;;;;18.65;67.83;98844.91;5087638;28;20059;-81
2022/08/22 06:39:09;;;;;;;7.03;3.13;;;;;;;18.88;66.07;98829.41;5092006;28;20036;-81
2022/08/22 06:41:41;;;;;;;14.82;3.92;;;;;;;19.22;64.06;98834.94;5089559;28;20067;-81
2022/08/22 06:44:11;;;;;;;12.25;4.13;;;;;;;19.31;63.75;98827.91;5091358;28;20059;-81
2022/08/22 06:46:38;;;;;;;8.82;3.67;;;;;;;19.41;63.36;98819.81;5078549;28;20177;-81
2022/08/22 06:49:08;;;;;;;15.75;3.22;;;;;;;19.24;63.97;98824.50;5089878;28;20047;-82
2022/08/22 06:51:37;;;;;;;22.90;3.47;;;;;;;19.88;62.78;98835.16;5075321;28;20048;-81
2022/08/22 06:54:07;;;;;;;23.58;3.58;;;;;;;19.93;62.17;98835.25;5091009;28;20067;-82
2022/08/22 06:56:41;;;;;;;18.08;3.58;;;;;;;20.15;59.96;98842.72;5090461;28;20056;-82
2022/08/22 06:59:13;;;;;;;11.73;3.65;;;;;;;20.45;59.00;98820.19;5091652;28;20052;-82
2022/08/22 07:01:48;;;;;;;10.95;3.63;;;;;;;20.73;59.21;98840.41;5082762;28;20048;-81
2022/08/22 07:04:16;;;;;;;43.30;6.45;;;;;;;21.11;57.43;98848.81;5087077;28;20075;-81
2022/08/22 07:06:45;;;;;;;27.67;5.63;;;;;;;20.67;57.17;98856.09;5082718;28;20095;-81
2022/08/22 07:09:21;;;;;;;13.70;4.10;;;;;;;20.51;58.69;98871.59;5091418;28;20082;-81
2022/08/22 07:11:51;;;;;;;20.02;4.53;;;;;;;20.46;58.81;98863.28;5091261;28;20044;-81
2022/08/22 07:14:26;;;;;;;18.30;3.95;;;;;;;20.63;57.76;98865.94;5090677;28;20044;-81
2022/08/22 07:16:56;;;;;;;10.10;2.97;;;;;;;20.91;57.77;98863.25;5088507;28;20386;-82
2022/08/22 07:19:25;;;;;;;;;;;;;;;21.11;56.39;98859.88;5088606;28;20419;-81
2022/08/22 07:21:51;;;;;;;11.43;3.10;;;;;;;21.11;56.68;98859.88;5077821;28;19920;-82
2022/08/22 07:24:23;;;;;;;14.23;3.63;;;;;;;21.25;56.00;98858.34;5085444;28;20148;-82
2022/08/22 07:27:07;;;;;;;8.73;3.45;;;;;;;21.17;55.33;98861.59;5090848;28;20078;-82
2022/08/22 07:29:44;;;;;;;14.10;3.75;;;;;;;21.52;54.93;98861.09;5088838;28;20087;-82
2022/08/22 07:32:15;;;;;;;10.05;3.20;;;;;;;21.51;55.79;98855.81;5085309;28;20051;-82
2022/08/22 07:35:04;;;;;;;6.07;3.03;;;;;;;21.13;53.60;98850.19;5089389;28;20044;-82
2022/08/22 07:37:46;;;;;;;6.10;3.00;;;;;;;21.39;54.40;98859.56;5081884;28;20553;-82
2022/08/22 07:40:22;;;;;;;6.47;3.17;;;;;;;21.68;54.36;98855.66;5080377;28;20095;-82
2022/08/22 07:42:58;;;;;;;6.47;3.25;;;;;;;21.78;52.80;98855.72;5081888;28;20138;-82
2022/08/22 07:45:33;;;;;;;10.95;3.08;;;;;;;21.86;52.72;98848.88;5089804;28;20518;-82
2022/08/22 07:48:12;;;;;;;4.82;2.70;;;;;;;21.79;52.12;98846.34;5075589;28;20040;-82
2022/08/22 07:50:52;;;;;;;5.70;3.17;;;;;;;21.63;52.02;98848.16;5084025;28;20061;-82
2022/08/22 07:53:25;;;;;;;8.15;2.88;;;;;;;21.77;51.79;98859.63;5087864;28;20072;-82
2022/08/22 07:55:54;;;;;;;5.53;3.97;;;;;;;21.81;52.75;98844.13;5085464;28;20050;-81
2022/08/22 07:58:25;;;;;;;6.43;2.22;;;;;;;21.91;51.08;98855.28;5084586;28;20075;-82
2022/08/22 08:00:54;;;;;;;6.43;2.85;;;;;;;22.04;51.57;98853.97;5085195;28;20048;-79
2022/08/22 08:03:22;;;;;;;5.70;2.40;;;;;;;22.24;51.39;98850.47;5071764;28;20538;-81
2022/08/22 08:05:50;;;;;;;6.53;2.80;;;;;;;22.31;51.31;98861.34;5072346;28;20052;-81
2022/08/22 08:08:23;;;;;;;14.40;3.35;;;;;;;22.43;50.68;98852.81;5071767;28;20488;-81
2022/08/22 08:10:52;;;;;;;11.10;3.22;;;;;;;22.34;50.99;98846.97;5079586;28;20052;-83
2022/08/22 08:13:25;;;;;;;6.97;3.17;;;;;;;22.33;51.21;98864.69;5091363;28;20070;-82
2022/08/22 08:15:52;;;;;;;4.78;2.70;;;;;;;22.41;50.68;98857.78;5088351;28;20048;-82
2022/08/22 08:18:24;;;;;;;5.75;2.80;;;;;;;22.68;51.75;98856.78;5093456;28;20404;-82
2022/08/22 08:20:53;;;;;;;7.00;2.65;;;;;;;22.75;50.69;98865.69;5091525;28;20055;-82
2022/08/22 08:23:21;;;;;;;4.93;3.05;;;;;;;22.63;51.79;98868.69;5074189;28;20186;-82
2022/08/22 08:25:54;;;;;;;4.63;2.60;;;;;;;22.60;50.75;98856.22;5078730;28;20446;-82
2022/08/22 08:28:35;;;;;;;6.15;2.95;;;;;;;22.71;50.29;98868.16;5085286;28;20494;-83
2022/08/22 08:31:07;;;;;;;5.90;2.72;;;;;;;22.59;50.37;98859.25;5091283;28;20051;-83
2022/08/22 08:33:36;;;;;;;8.45;3.17;;;;;;;22.69;52.13;98861.22;5095705;28;20079;-82
2022/08/22 08:36:11;;;;;;;6.30;2.92;;;;;;;22.84;50.42;98850.19;5080550;28;20094;-83
2022/08/22 08:38:45;;;;;;;6.10;2.95;;;;;;;23.03;50.89;98867.13;5080841;28;20550;-83
2022/08/22 08:41:46;;;;;;;3.90;2.63;;;;;;;23.22;50.76;98870.25;5094756;28;20380;-83
2022/08/22 08:44:34;;;;;;;6.63;2.60;;;;;;;23.33;50.93;98854.44;5084149;28;20048;-82
2022/08/22 08:47:24;;;;;;;6.18;3.05;;;;;;;23.32;48.54;98855.56;5086916;28;20072;-83
2022/08/22 08:50:17;;;;;;;5.25;2.20;;;;;;;23.48;49.17;98848.88;5094663;28;20051;-83
2022/08/22 08:52:58;;;;;;;5.13;2.63;;;;;;;23.64;49.97;98862.78;5095253;28;20052;-82
2022/08/22 08:55:37;;;;;;;5.47;2.45;;;;;;;23.72;48.10;98839.19;5094067;28;20047;-83
2022/08/22 08:58:22;;;;;;;4.90;2.90;;;;;;;23.82;48.44;98850.28;5084534;28;20048;-82
2022/08/22 09:00:56;;;;;;;7.10;2.72;;;;;;;24.02;47.97;98846.63;5092552;28;20062;-83
2022/08/22 09:03:59;;;;;;;3.53;2.53;;;;;;;24.14;47.25;98854.66;5090826;28;20121;-82
2022/08/22 09:06:48;;;;;;;4.55;2.70;;;;;;;24.13;47.98;98845.50;5086727;28;20048;-83
2022/08/22 09:09:28;;;;;;;2.92;2.47;;;;;;;24.22;47.39;98831.84;5086367;28;20424;-83
2022/08/22 09:12:14;;;;;;;3.78;3.05;;;;;;;24.30;47.68;98836.84;5089853;28;20044;-83
2022/08/22 09:15:01;;;;;;;4.10;2.30;;;;;;;24.58;47.32;98844.78;5087004;28;20051;-82
2022/08/22 09:17:49;;;;;;;3.88;2.20;;;;;;;24.78;46.45;98843.88;5093738;28;20097;-81
2022/08/22 09:20:45;;;;;;;5.68;2.90;;;;;;;24.71;46.12;98836.69;5091983;28;20058;-81
2022/08/22 09:23:41;;;;;;;4.75;3.50;;;;;;;24.79;45.93;98838.03;5061666;28;20045;-81
2022/08/22 09:26:16;;;;;;;4.10;2.72;;;;;;;24.68;46.45;98836.44;5090731;28;20043;-82
2022/08/22 09:28:53;;;;;;;5.25;3.00;;;;;;;24.79;45.00;98843.56;5083281;28;20052;-82
2022/08/22 09:31:31;;;;;;;7.97;2.60;;;;;;;25.13;45.18;98848.38;5086154;28;20044;-81
2022/08/22 09:34:07;;;;;;;3.20;2.45;;;;;;;25.08;44.63;98826.16;5079471;28;20051;-81
2022/08/22 09:36:47;;;;;;;4.85;2.90;;;;;;;25.17;44.49;98831.94;5091152;28;20469;-81
2022/08/22 09:39:18;;;;;;;3.38;2.75;;;;;;;25.05;43.86;98824.81;5076949;28;20056;-82
2022/08/22 09:41:55;;;;;;;14.77;4.55;;;;;;;25.25;42.47;98839.69;5075790;28;20084;-81
2022/08/22 09:44:35;;;;;;;6.05;2.83;;;;;;;25.26;42.32;98827.41;5092009;28;20396;-82
2022/08/22 09:47:12;;;;;;;4.32;2.55;;;;;;;25.36;43.41;98834.91;5078584;28;20070;-81
2022/08/22 09:49:52;;;;;;;4.25;2.95;;;;;;;25.47;43.80;98846.75;5085214;28;20056;-81
2022/08/22 09:52:44;;;;;;;4.15;2.78;;;;;;;25.53;42.87;98834.47;5085227;28;20082;-82
2022/08/22 09:55:29;;;;;;;2.83;2.50;;;;;;;25.62;42.68;98835.50;5087588;28;20047;-81
2022/08/22 09:58:07;;;;;;;3.45;2.55;;;;;;;25.40;43.17;98822.88;5060282;28;20047;-81
2022/08/22 10:00:45;;;;;;;4.90;2.65;;;;;;;25.46;44.56;98845.09;5084162;28;20079;-81
2022/08/22 10:03:19;;;;;;;3.63;2.70;;;;;;;25.66;42.77;98828.22;5080572;28;20041;-81
2022/08/22 10:05:56;;;;;;;7.07;2.97;;;;;;;25.70;42.23;98829.31;5087946;28;20043;-82
2022/08/22 10:08:58;;;;;;;5.38;2.60;;;;;;;26.03;42.86;98826.78;5083276;28;20072;-81
2022/08/22 10:11:28;;;;;;;4.38;3.00;;;;;;;26.20;41.58;98831.88;5075414;28;20056;-81
2022/08/22 10:14:02;;;;;;;4.15;2.40;;;;;;;26.36;41.25;98818.59;5085210;28;20040;-81
2022/08/22 10:16:49;;;;;;;3.13;2.72;;;;;;;26.78;40.90;98811.38;5091708;28;20040;-81
2022/08/22 10:19:24;;;;;;;3.17;2.35;;;;;;;26.67;40.55;98829.34;5074449;28;20509;-81
2022/08/22 10:22:19;;;;;;;8.40;3.28;;;;;;;26.81;40.07;98829.44;5085149;28;20412;-82
2022/08/22 10:24:54;;;;;;;4.78;2.50;;;;;;;27.15;40.08;98825.59;5083189;28;20097;-81
2022/08/22 10:27:30;;;;;;;6.25;2.95;;;;;;;27.16;39.64;98802.16;5090218;28;20399;-81
2022/08/22 10:30:06;;;;;;;3.40;2.63;;;;;;;27.46;38.66;98800.00;5079508;28;20054;-81
2022/08/22 10:33:12;;;;;;;7.38;2.45;;;;;;;27.47;37.36;98810.03;5090983;28;20135;-81
2022/08/22 10:36:07;;;;;;;4.13;2.45;;;;;;;27.47;36.85;98796.09;5038184;28;20077;-82
2022/08/22 10:41:55;;;;;;;5.57;2.15;;;;;;;27.63;36.38;98791.88;5078719;28;20058;-81
2022/08/22 10:47:33;;;;;;;2.67;2.20;;;;;;;27.87;35.69;98777.75;5077858;28;20094;-82
2022/08/22 10:50:16;;;;;;;3.55;2.05;;;;;;;28.07;35.08;98784.09;5071301;28;20048;-82
2022/08/22 10:52:47;;;;;;;2.50;2.13;;;;;;;28.27;34.91;98793.22;5092499;28;20136;-82
2022/08/22 10:55:24;;;;;;;4.65;2.45;;;;;;;27.90;33.98;98773.53;5090981;28;20043;-82
2022/08/22 10:58:04;;;;;;;8.35;2.75;;;;;;;27.51;34.41;98777.59;5090827;28;20040;-79
2022/08/22 11:00:44;;;;;;;2.65;2.38;;;;;;;27.67;35.23;98773.41;5084360;28;20071;-84
2022/08/22 11:03:15;;;;;;;3.88;2.05;;;;;;;27.63;33.19;98765.94;5092126;28;20044;-81
2022/08/22 11:05:43;;;;;;;3.70;2.13;;;;;;;27.99;32.86;98754.94;5073341;28;20131;-82
2022/08/22 11:08:44;;;;;;;4.28;2.38;;;;;;;28.29;34.57;98758.22;5084188;28;20048;-81
2022/08/22 11:11:23;;;;;;;3.53;2.40;;;;;;;28.03;35.02;98757.91;5071694;28;20052;-81
2022/08/22 11:14:14;;;;;;;3.63;2.70;;;;;;;28.50;34.36;98749.38;5070317;28;20044;-82
2022/08/22 11:16:55;;;;;;;3.92;2.38;;;;;;;28.59;33.60;98751.16;5091770;28;20052;-82
2022/08/22 11:19:37;;;;;;;5.88;2.20;;;;;;;28.94;32.49;98762.63;5092753;28;20373;-81
2022/08/22 11:22:14;;;;;;;5.65;2.40;;;;;;;29.13;32.38;98761.63;5088550;28;20084;-81
2022/08/22 11:25:14;;;;;;;2.95;2.17;;;;;;;29.03;32.54;98759.91;5070241;28;20044;-81
2022/08/22 11:27:56;;;;;;;2.50;2.30;;;;;;;28.80;33.08;98756.28;5070214;28;20083;-80
2022/08/22 11:30:34;;;;;;;2.55;2.15;;;;;;;28.89;32.07;98750.75;5077730;28;20053;-82
2022/08/22 11:33:24;;;;;;;5.13;2.47;;;;;;;28.46;33.28;98748.38;5083252;28;20494;-81
2022/08/22 11:35:59;;;;;;;2.60;1.98;;;;;;;28.77;32.55;98752.16;5089316;28;20040;-81
2022/08/22 11:38:34;;;;;;;5.78;2.60;;;;;;;28.64;32.81;98754.97;5087158;28;20641;-81
2022/08/22 11:41:13;;;;;;;2.63;2.13;;;;;;;28.64;33.11;98741.00;5090690;28;20046;-81
2022/08/22 11:43:53;;;;;;;5.43;2.50;;;;;;;28.94;32.40;98747.84;5079969;28;20485;-81
2022/08/22 11:46:28;;;;;;;3.25;1.98;;;;;;;29.24;31.60;98723.06;5081656;28;20101;-81
2022/08/22 11:49:05;;;;;;;2.13;1.92;;;;;;;29.66;31.31;98738.44;5076037;28;20478;-81
2022/08/22 11:51:56;;;;;;;4.72;2.55;;;;;;;29.53;30.75;98730.97;5077995;28;20043;-83
2022/08/22 11:54:29;;;;;;;9.93;2.45;;;;;;;29.63;31.24;98741.06;5089161;28;20072;-81
2022/08/22 11:57:05;;;;;;;2.88;1.83;;;;;;;29.34;32.04;98744.34;5085027;28;20605;-81
2022/08/22 11:59:40;;;;;;;2.28;1.88;;;;;;;28.97;32.39;98736.00;5073388;28;20040;-81
2022/08/22 12:16:02;;;;;;;3.65;1.90;;;;;;;29.07;33.16;98729.31;5229992;23;20053;-80
2022/08/22 12:18:42;;;;;;;5.60;2.20;;;;;;;28.47;33.13;98722.03;5004907;28;20053;-79
2022/08/22 12:21:28;;;;;;;2.17;1.98;;;;;;;28.66;33.44;98724.72;5003034;28;20073;-80
2022/08/22 12:24:33;;;;;;;3.40;2.50;;;;;;;28.22;34.22;98713.91;4997104;28;20485;-80
2022/08/22 12:27:28;;;;;;;9.63;2.50;;;;;;;27.75;34.28;98717.94;4976001;28;20057;-79
2022/08/22 12:30:12;;;;;;;5.07;2.42;;;;;;;27.93;35.29;98717.03;5017652;28;20055;-79
2022/08/22 13:11:18;;;;;;;4.60;2.78;;;;;;;27.07;35.98;98697.94;4996552;28;20108;-81
2022/08/22 13:14:04;;;;;;;3.40;2.20;;;;;;;27.08;35.03;98696.84;4970010;28;20051;-80
2022/08/22 13:19:32;;;;;;;3.95;2.20;;;;;;;27.10;35.04;98698.19;5002573;28;20468;-80
2022/08/22 13:22:24;;;;;;;6.25;1.73;;;;;;;27.15;35.12;98686.13;5024298;28;20053;-80
2022/08/22 13:24:57;;;;;;;3.05;1.85;;;;;;;27.34;34.83;98697.22;5022346;28;20041;-80
2022/08/22 13:27:32;;;;;;;7.35;2.33;;;;;;;27.29;35.42;98688.91;5011166;28;20049;-80